Urb Sevilla, Puerto Rico
Current Conditions -  °F | °C
As of 11:56 PM on Tuesday 27 Jan 2015 (Local Time) from TJSJ Reporting Station
Clear Clear  
Wind Chill: 77°   Ceiling: Unl
Heat Index: 78°   Visibility: 10mi
Dew Point: 72°   Wind: 3mph
Humidity: 84%   Direction: 150°SSE
Pressure: 30.02"   Gusts: NA
Location:  18.4051°N, 66.0126°W
Report Text: TJSJ 280356Z 15003KT 10SM CLR 25/22 A3002 RMK AO2 SLP163 T02500222 403110233
Loading
Personal Weather Stations






























Interactive Weather Map New forecast layout! Learn more

10-Day Weather Forecast

Advertisements
Track Severe Weather on mobile